Time;durP1;ratioP1;P1;durP2;ratioP2;P2;SDS_P1;SDS_P2;PMS_P1;PMS_P2;Temp;Humidity;BMP_temperature;BMP_pressure;BME280_temperature;BME280_humidity;BME280_pressure;Samples;Min_cycle;Max_cycle;Signal;HPM_P1;HPM_P2
2022/01/25 00:09:34;;;;;;;;;;;;;;;16.38;58.95;100308.28;3101969;28;20414;-71
2022/01/25 00:15:10;;;;;;;;;;;;;;;16.33;59.00;100307.88;3100659;28;19921;-72
2022/01/25 00:24:21;;;;;;;;;;;;;;;16.26;59.13;100306.78;3087068;28;19975;-70
2022/01/25 00:26:03;;;;;;;;;;;;;;;16.23;59.08;100307.91;3101980;28;19968;-70
2022/01/25 00:27:52;;;;;;;;;;;;;;;16.22;59.11;100306.22;3113564;28;19925;-70
2022/01/25 00:29:29;;;;;;;;;;;;;;;16.19;59.32;100300.34;3114090;28;19925;-71
2022/01/25 00:31:09;;;;;;;;;;;;;;;16.18;59.09;100296.78;3111571;28;20014;-71
2022/01/25 00:32:40;;;;;;;;;;;;;;;16.16;59.14;100304.16;3113197;28;19932;-71
2022/01/25 00:34:11;;;;;;;;;;;;;;;16.15;59.13;100299.78;3111229;28;19925;-71
2022/01/25 00:35:43;;;;;;;;;;;;;;;16.15;58.94;100301.59;3112835;28;19921;-71
2022/01/25 00:37:15;;;;;;;;;;;;;;;16.11;59.17;100298.38;3112367;28;19964;-71
2022/01/25 00:38:47;;;;;;;;;;;;;;;16.11;59.21;100309.09;3111274;28;19932;-72
2022/01/25 00:40:18;;;;;;;;;;;;;;;16.09;59.21;100298.53;3111764;28;19978;-71
2022/01/25 00:41:50;;;;;;;;;;;;;;;16.07;59.32;100307.69;3110977;28;19971;-70
2022/01/25 00:43:24;;;;;;;;;;;;;;;16.06;59.26;100311.38;3109783;28;20622;-71
2022/01/25 00:44:56;;;;;;;;;;;;;;;16.05;59.31;100309.69;3112305;28;19931;-71
2022/01/25 00:46:28;;;;;;;;;;;;;;;16.03;59.29;100314.34;3113071;28;19936;-70
2022/01/25 00:48:02;;;;;;;;;;;;;;;16.02;59.25;100310.81;3111148;28;20012;-71
2022/01/25 00:49:37;;;;;;;;;;;;;;;16.01;59.32;100313.63;3113667;28;20008;-70
2022/01/25 00:51:19;;;;;;;;;;;;;;;15.99;59.30;100313.78;3111177;28;20393;-70
2022/01/25 00:54:43;;;;;;;;;;;;;;;15.98;59.34;100313.94;3114491;28;19925;-71
2022/01/25 00:56:14;;;;;;;;;;;;;;;15.96;59.28;100316.72;3113193;28;20382;-71
2022/01/25 00:57:46;;;;;;;;;;;;;;;15.94;59.30;100316.06;3108776;28;20562;-72
2022/01/25 00:59:20;;;;;;;;;;;;;;;15.93;59.34;100317.03;3111289;28;19972;-72
2022/01/25 01:00:52;;;;;;;;;;;;;;;15.92;59.27;100314.50;3099953;28;20410;-71
2022/01/25 01:02:23;;;;;;;;;;;;;;;15.91;59.25;100323.50;3100453;28;19969;-71
2022/01/25 01:03:55;;;;;;;;;;;;;;;15.89;59.34;100329.03;3099209;28;20859;-71
2022/01/25 01:05:26;;;;;;;;;;;;;;;15.88;59.32;100329.16;3098257;28;19926;-71
2022/01/25 01:07:00;;;;;;;;;;;;;;;15.88;59.37;100329.16;3106853;28;19924;-71
2022/01/25 01:08:32;;;;;;;;;;;;;;;15.85;59.29;100322.25;3101961;28;19988;-70
2022/01/25 01:10:04;;;;;;;;;;;;;;;15.81;59.42;100327.06;3109547;28;19925;-70
2022/01/25 01:11:40;;;;;;;;;;;;;;;15.79;59.33;100323.69;3112340;28;19929;-71
2022/01/25 01:15:19;;;;;;;;;;;;;;;15.80;59.39;100322.72;3088678;28;19925;-71
2022/01/25 01:17:15;;;;;;;;;;;;;;;15.75;59.44;100319.63;3100630;28;19925;-70
2022/01/25 01:29:54;;;;;;;;;;;;;;;15.67;59.51;100332.00;3102007;28;19961;-71
2022/01/25 01:31:34;;;;;;;;;;;;;;;15.64;59.50;100331.28;3099338;28;19975;-71
2022/01/25 01:37:12;;;;;;;;;;;;;;;15.61;59.55;100342.28;3111546;28;19925;-71
2022/01/25 01:40:56;;;;;;;;;;;;;;;15.59;59.61;100335.38;3099140;28;19948;-70
2022/01/25 01:44:21;;;;;;;;;;;;;;;15.53;59.73;100336.78;3100132;28;19925;-71
2022/01/25 01:45:59;;;;;;;;;;;;;;;15.53;59.67;100333.28;3097210;28;19932;-71
2022/01/25 01:47:37;;;;;;;;;;;;;;;15.52;59.70;100329.75;3107655;28;19924;-70
2022/01/25 01:49:11;;;;;;;;;;;;;;;15.51;59.51;100324.53;3112850;28;20008;-70
2022/01/25 01:50:42;;;;;;;;;;;;;;;15.50;59.59;100330.88;3112249;28;19956;-71
2022/01/25 01:52:14;;;;;;;;;;;;;;;15.50;59.61;100322.88;3112012;28;20512;-70
2022/01/25 01:53:46;;;;;;;;;;;;;;;15.49;59.65;100321.16;3112657;28;19928;-71
2022/01/25 01:55:16;;;;;;;;;;;;;;;15.48;59.68;100327.50;3097479;28;19980;-71
2022/01/25 01:56:48;;;;;;;;;;;;;;;15.47;59.67;100321.31;3101890;28;20640;-72
2022/01/25 01:58:20;;;;;;;;;;;;;;;15.47;59.65;100325.81;3111082;28;19925;-71
2022/01/25 01:59:52;;;;;;;;;;;;;;;15.46;59.57;100324.13;3099701;28;19925;-70
2022/01/25 02:01:24;;;;;;;;;;;;;;;15.44;59.56;100329.63;3107544;28;19932;-70
2022/01/25 02:02:58;;;;;;;;;;;;;;;15.43;59.54;100325.25;3108830;28;19924;-71
2022/01/25 02:04:30;;;;;;;;;;;;;;;15.40;59.63;100329.03;3113059;28;19956;-71
2022/01/25 02:06:01;;;;;;;;;;;;;;;15.39;59.66;100323.84;3111272;28;19921;-71
2022/01/25 02:07:33;;;;;;;;;;;;;;;15.39;59.64;100324.69;3113785;28;20417;-71
2022/01/25 02:09:05;;;;;;;;;;;;;;;15.38;59.63;100324.84;3111398;28;19956;-70
2022/01/25 02:10:37;;;;;;;;;;;;;;;15.37;59.75;100321.31;3113250;28;19928;-71
2022/01/25 02:12:09;;;;;;;;;;;;;;;15.36;59.71;100319.63;3111896;28;19937;-71
2022/01/25 02:13:41;;;;;;;;;;;;;;;15.35;59.63;100315.28;3113322;28;19921;-71
2022/01/25 02:15:14;;;;;;;;;;;;;;;15.34;59.68;100312.72;3111396;28;19921;-71
2022/01/25 02:17:02;;;;;;;;;;;;;;;15.32;59.60;100315.56;3109888;28;20471;-70
2022/01/25 02:22:29;;;;;;;;;;;;;;;15.28;59.69;100311.47;3100166;28;19929;-71
2022/01/25 02:24:01;;;;;;;;;;;;;;;15.27;59.75;100315.13;3101566;28;20365;-70
2022/01/25 02:25:32;;;;;;;;;;;;;;;15.26;59.49;100313.44;3102324;28;19921;-71
2022/01/25 02:27:04;;;;;;;;;;;;;;;15.26;59.63;100309.91;3100751;28;20467;-70
2022/01/25 02:28:36;;;;;;;;;;;;;;;15.25;59.63;100314.44;3101442;28;19928;-71
2022/01/25 02:30:08;;;;;;;;;;;;;;;15.23;59.62;100313.72;3100716;28;19944;-71
2022/01/25 02:31:40;;;;;;;;;;;;;;;15.21;59.76;100305.03;3113625;28;19924;-71
2022/01/25 02:33:12;;;;;;;;;;;;;;;15.20;59.78;100309.50;3106185;28;19921;-71
2022/01/25 02:34:44;;;;;;;;;;;;;;;15.20;59.77;100297.97;3100007;28;19925;-70
2022/01/25 02:36:22;;;;;;;;;;;;;;;15.19;59.72;100302.47;3100819;28;19971;-70
2022/01/25 02:37:53;;;;;;;;;;;;;;;15.17;59.61;100301.75;3109450;28;19968;-71
2022/01/25 02:39:25;;;;;;;;;;;;;;;15.17;59.69;100303.59;3112087;28;20487;-70
2022/01/25 02:40:57;;;;;;;;;;;;;;;15.15;59.81;100309.06;3099899;28;19921;-70
2022/01/25 02:42:28;;;;;;;;;;;;;;;15.12;59.80;100309.34;3105676;28;19941;-70
2022/01/25 02:44:00;;;;;;;;;;;;;;;15.13;59.83;100315.56;3112936;28;19920;-70
2022/01/25 02:45:35;;;;;;;;;;;;;;;15.10;60.04;100307.81;3110363;28;19932;-70
2022/01/25 02:48:55;;;;;;;;;;;;;;;15.08;59.91;100310.63;3109200;28;19952;-70
2022/01/25 02:50:27;;;;;;;;;;;;;;;15.10;59.79;100307.81;3100778;28;19961;-71
2022/01/25 02:52:02;;;;;;;;;;;;;;;15.11;59.98;100304.16;3107948;28;19932;-71
2022/01/25 02:53:33;;;;;;;;;;;;;;;15.09;59.98;100306.13;3099099;28;20004;-71
2022/01/25 02:55:05;;;;;;;;;;;;;;;15.07;60.02;100298.25;3108155;28;20011;-70
2022/01/25 02:56:37;;;;;;;;;;;;;;;15.08;59.90;100302.63;3111727;28;19921;-70
2022/01/25 02:58:09;;;;;;;;;;;;;;;15.06;60.05;100301.06;3099555;28;19959;-69
2022/01/25 02:59:39;;;;;;;;;;;;;;;15.06;59.91;100298.38;3099434;28;20341;-70
2022/01/25 03:01:11;;;;;;;;;;;;;;;15.07;59.93;100302.75;3109512;28;19925;-70
2022/01/25 03:02:43;;;;;;;;;;;;;;;15.06;59.98;100301.06;3099314;28;19949;-71
2022/01/25 03:04:16;;;;;;;;;;;;;;;15.07;59.84;100308.09;3098540;28;20824;-70
2022/01/25 03:05:48;;;;;;;;;;;;;;;15.06;59.99;100301.06;3098547;28;19953;-70
2022/01/25 03:07:21;;;;;;;;;;;;;;;15.04;59.94;100297.69;3110082;28;19925;-71
2022/01/25 03:08:53;;;;;;;;;;;;;;;15.04;60.03;100300.34;3110665;28;19932;-71
2022/01/25 03:10:33;;;;;;;;;;;;;;;15.02;60.04;100297.00;3106053;28;19925;-70
2022/01/25 03:12:07;;;;;;;;;;;;;;;15.00;59.99;100302.47;3102395;28;19937;-70
2022/01/25 03:13:49;;;;;;;;;;;;;;;15.00;60.06;100297.13;3107151;28;19925;-71
2022/01/25 03:15:25;;;;;;;;;;;;;;;14.98;59.96;100293.75;3101617;28;19922;-71
2022/01/25 03:17:08;;;;;;;;;;;;;;;14.98;59.99;100299.91;3098931;28;20027;-70
2022/01/25 03:18:44;;;;;;;;;;;;;;;14.97;59.94;100297.41;3109942;28;19964;-70
2022/01/25 03:20:22;;;;;;;;;;;;;;;14.96;59.97;100299.25;3105725;28;19928;-71
2022/01/25 03:21:54;;;;;;;;;;;;;;;14.96;60.05;100299.25;3110418;28;20021;-70
2022/01/25 03:23:28;;;;;;;;;;;;;;;14.94;60.08;100298.53;3115519;28;20336;-70
2022/01/25 03:25:00;;;;;;;;;;;;;;;14.94;60.13;100301.19;3114328;28;19951;-70
2022/01/25 03:26:35;;;;;;;;;;;;;;;14.93;60.11;100304.84;3115248;28;20191;-71
2022/01/25 03:28:07;;;;;;;;;;;;;;;14.94;59.92;100295.00;3113309;28;20648;-70
2022/01/25 03:29:38;;;;;;;;;;;;;;;14.93;59.95;100302.19;3114379;28;20008;-71
2022/01/25 03:31:09;;;;;;;;;;;;;;;14.92;60.00;100304.97;3099815;28;19926;-70
2022/01/25 03:32:40;;;;;;;;;;;;;;;14.92;60.04;100300.47;3108689;28;20585;-70
2022/01/25 03:34:12;;;;;;;;;;;;;;;14.91;60.05;100293.47;3114539;28;19961;-71
2022/01/25 03:35:43;;;;;;;;;;;;;;;14.91;59.87;100296.13;3112628;28;19921;-70
2022/01/25 03:37:15;;;;;;;;;;;;;;;14.89;59.98;100291.91;3112565;28;19925;-71
2022/01/25 03:38:48;;;;;;;;;;;;;;;14.88;59.87;100293.75;3113493;28;20579;-71
2022/01/25 03:40:18;;;;;;;;;;;;;;;14.89;59.90;100295.41;3112800;28;19928;-70
2022/01/25 03:41:50;;;;;;;;;;;;;;;14.88;59.97;100296.41;3112612;28;19925;-70
2022/01/25 03:43:21;;;;;;;;;;;;;;;14.88;59.98;100292.91;3114763;28;19924;-70
2022/01/25 03:44:55;;;;;;;;;;;;;;;14.87;60.01;100289.38;3111626;28;19928;-71
2022/01/25 03:46:35;;;;;;;;;;;;;;;14.86;60.08;100293.03;3112482;28;21126;-71
2022/01/25 03:49:52;;;;;;;;;;;;;;;14.85;59.83;100279.78;3113719;28;19931;-70
2022/01/25 03:51:22;;;;;;;;;;;;;;;14.85;59.85;100287.81;3112134;28;19955;-70
2022/01/25 03:52:54;;;;;;;;;;;;;;;14.83;59.75;100284.47;3112005;28;19925;-70
2022/01/25 03:54:27;;;;;;;;;;;;;;;14.83;59.91;100282.63;3113149;28;19921;-70
2022/01/25 03:55:59;;;;;;;;;;;;;;;14.81;60.10;100273.06;3115240;28;19922;-70
2022/01/25 03:57:30;;;;;;;;;;;;;;;14.81;60.06;100275.72;3109011;28;19932;-70
2022/01/25 03:59:02;;;;;;;;;;;;;;;14.80;60.00;100277.56;3099647;28;19925;-71
2022/01/25 04:00:34;;;;;;;;;;;;;;;14.78;60.06;100276.84;3105166;28;19925;-70
2022/01/25 04:02:06;;;;;;;;;;;;;;;14.78;59.94;100282.19;3102666;28;20516;-71
2022/01/25 04:03:43;;;;;;;;;;;;;;;14.77;60.09;100280.50;3102752;28;19925;-70
2022/01/25 04:05:21;;;;;;;;;;;;;;;14.77;59.96;100283.19;3097630;28;19935;-69
2022/01/25 04:06:54;;;;;;;;;;;;;;;14.75;59.93;100283.31;3101024;28;20463;-70
2022/01/25 04:08:24;;;;;;;;;;;;;;;14.76;60.18;100281.47;3101678;28;19980;-70
2022/01/25 04:09:57;;;;;;;;;;;;;;;14.75;59.97;100287.81;3111691;28;20481;-71
2022/01/25 04:11:29;;;;;;;;;;;;;;;14.73;60.09;100277.25;3113334;28;19929;-70
2022/01/25 04:13:01;;;;;;;;;;;;;;;14.72;59.97;100286.25;3098839;28;19953;-71
2022/01/25 04:14:32;;;;;;;;;;;;;;;14.71;59.95;100291.75;3102513;28;19937;-71
2022/01/25 04:16:11;;;;;;;;;;;;;;;14.70;60.07;100285.53;3099233;28;22992;-71
2022/01/25 04:17:47;;;;;;;;;;;;;;;14.70;60.05;100284.72;3102489;28;19972;-70
2022/01/25 04:19:28;;;;;;;;;;;;;;;14.67;60.00;100285.81;3108235;28;19921;-70
2022/01/25 04:21:07;;;;;;;;;;;;;;;14.67;60.12;100279.66;3103582;28;20564;-71
2022/01/25 04:24:44;;;;;;;;;;;;;;;14.65;59.99;100282.44;3114155;28;19921;-70
2022/01/25 04:26:17;;;;;;;;;;;;;;;14.65;60.12;100270.91;3100716;28;19936;-70
2022/01/25 04:27:49;;;;;;;;;;;;;;;14.63;60.23;100276.41;3111093;28;19928;-70
2022/01/25 04:29:19;;;;;;;;;;;;;;;14.62;60.21;100272.03;3115158;28;20062;-70
2022/01/25 04:30:51;;;;;;;;;;;;;;;14.63;60.19;100268.41;3113580;28;19989;-70
2022/01/25 04:32:32;;;;;;;;;;;;;;;14.64;60.30;100263.91;3101712;28;19922;-71
2022/01/25 04:34:11;;;;;;;;;;;;;;;14.65;60.29;100262.91;3113470;28;20386;-70
2022/01/25 04:35:57;;;;;;;;;;;;;;;14.65;60.16;100260.22;3105384;28;20675;-70
2022/01/25 04:50:12;;;;;;;;;;;;;;;14.68;60.10;100258.16;3100671;28;20020;-71
2022/01/25 04:51:52;;;;;;;;;;;;;;;14.67;60.27;100253.78;3102467;28;19968;-71
2022/01/25 04:53:34;;;;;;;;;;;;;;;14.68;60.27;100259.97;3099420;28;19983;-71
2022/01/25 04:55:13;;;;;;;;;;;;;;;14.67;60.11;100251.09;3113020;28;20396;-71
2022/01/25 04:56:51;;;;;;;;;;;;;;;14.68;60.10;100259.97;3115210;28;20675;-70
2022/01/25 04:58:30;;;;;;;;;;;;;;;14.68;60.19;100260.81;3110048;28;19922;-70
2022/01/25 05:00:05;;;;;;;;;;;;;;;14.69;59.98;100256.31;3104971;28;20475;-70
2022/01/25 05:01:38;;;;;;;;;;;;;;;14.69;60.17;100256.31;3113967;28;19956;-71
2022/01/25 05:03:13;;;;;;;;;;;;;;;14.68;60.18;100255.50;3111225;28;20460;-70
2022/01/25 05:04:49;;;;;;;;;;;;;;;14.67;59.99;100263.63;3101815;28;19979;-71
2022/01/25 05:06:22;;;;;;;;;;;;;;;14.67;59.99;100260.94;3108214;28;19925;-71
2022/01/25 05:07:59;;;;;;;;;;;;;;;14.70;59.94;100258.00;3113120;28;19991;-71
2022/01/25 05:09:33;;;;;;;;;;;;;;;14.70;60.02;100264.19;3108580;28;20303;-70
2022/01/25 05:11:09;;;;;;;;;;;;;;;14.73;60.08;100255.03;3108557;28;19929;-70
2022/01/25 05:12:45;;;;;;;;;;;;;;;14.77;59.90;100258.31;3115336;28;19927;-71
2022/01/25 05:14:22;;;;;;;;;;;;;;;14.83;59.99;100258.59;3114369;28;19960;-71
2022/01/25 05:16:04;;;;;;;;;;;;;;;14.90;60.01;100254.34;3102766;28;19928;-70
2022/01/25 05:17:41;;;;;;;;;;;;;;;14.96;59.72;100261.84;3102660;28;19971;-69
2022/01/25 05:19:23;;;;;;;;;;;;;;;15.04;59.73;100255.75;3103188;28;20269;-70
2022/01/25 05:22:43;;;;;;;;;;;;;;;15.17;59.75;100255.50;3114426;28;19964;-71
2022/01/25 05:24:15;;;;;;;;;;;;;;;15.24;59.67;100259.28;3109427;28;20353;-70
2022/01/25 05:25:47;;;;;;;;;;;;;;;15.30;59.42;100257.88;3101425;28;20003;-70
2022/01/25 05:27:19;;;;;;;;;;;;;;;15.35;59.42;100253.78;3101841;28;20306;-70
2022/01/25 05:28:51;;;;;;;;;;;;;;;15.41;59.46;100252.38;3099322;28;20383;-70
2022/01/25 05:30:24;;;;;;;;;;;;;;;15.49;59.27;100248.97;3105095;28;19925;-69
2022/01/25 05:31:54;;;;;;;;;;;;;;;15.55;59.26;100243.91;3103130;28;19925;-70
2022/01/25 05:33:26;;;;;;;;;;;;;;;15.62;59.09;100250.34;3105048;28;19921;-71
2022/01/25 05:34:57;;;;;;;;;;;;;;;15.69;58.99;100249.81;3102979;28;20457;-71
2022/01/25 05:36:29;;;;;;;;;;;;;;;15.72;58.97;100252.19;3107769;28;19936;-71
2022/01/25 05:38:00;;;;;;;;;;;;;;;15.74;58.97;100253.75;3111121;28;20397;-70
2022/01/25 05:39:34;;;;;;;;;;;;;;;15.77;58.86;100252.59;3113441;28;20602;-71
2022/01/25 05:41:05;;;;;;;;;;;;;;;15.78;58.79;100260.47;3112643;28;19930;-71
2022/01/25 05:42:49;;;;;;;;;;;;;;;15.83;58.75;100255.53;3107106;28;19925;-71
2022/01/25 05:44:27;;;;;;;;;;;;;;;15.85;58.79;100252.69;3101781;28;19925;-71
2022/01/25 05:46:10;;;;;;;;;;;;;;;15.87;58.74;100250.72;3098222;28;19936;-71
2022/01/25 05:47:43;;;;;;;;;;;;;;;15.93;58.64;100250.13;3100748;28;20438;-70
2022/01/25 05:49:15;;;;;;;;;;;;;;;15.95;58.80;100258.84;3101987;28;19926;-70
2022/01/25 05:50:46;;;;;;;;;;;;;;;15.99;58.51;100257.59;3099037;28;19921;-70
2022/01/25 05:52:18;;;;;;;;;;;;;;;16.03;58.48;100252.78;3101029;28;19925;-70
2022/01/25 05:53:49;;;;;;;;;;;;;;;16.05;58.53;100251.66;3098831;28;19937;-71
2022/01/25 05:55:21;;;;;;;;;;;;;;;16.07;58.48;100255.03;3114684;28;19947;-71
2022/01/25 05:56:52;;;;;;;;;;;;;;;16.12;58.52;100251.88;3112993;28;19929;-70
2022/01/25 05:58:24;;;;;;;;;;;;;;;16.13;58.40;100250.91;3110342;28;20084;-70
2022/01/25 05:59:56;;;;;;;;;;;;;;;16.14;58.31;100252.59;3099445;28;19925;-70
2022/01/25 06:01:29;;;;;;;;;;;;;;;16.15;58.43;100254.25;3102611;28;19932;-70
2022/01/25 06:03:03;;;;;;;;;;;;;;;16.17;58.41;100249.59;3100438;28;19995;-71
2022/01/25 06:04:34;;;;;;;;;;;;;;;16.19;58.31;100253.00;3112981;28;19928;-71
2022/01/25 06:06:06;;;;;;;;;;;;;;;16.21;58.30;100250.97;3111828;28;19924;-71
2022/01/25 06:07:38;;;;;;;;;;;;;;;16.21;58.32;100256.34;3113807;28;19925;-71
2022/01/25 06:09:09;;;;;;;;;;;;;;;16.22;58.29;100255.38;3110788;28;19928;-70
2022/01/25 06:10:41;;;;;;;;;;;;;;;16.22;58.38;100252.69;3100619;28;19964;-71
2022/01/25 06:12:12;;;;;;;;;;;;;;;16.23;58.31;100249.00;3103212;28;19922;-71
2022/01/25 06:13:44;;;;;;;;;;;;;;;16.22;58.29;100250.00;3114898;28;19925;-70
2022/01/25 06:15:15;;;;;;;;;;;;;;;16.22;58.30;100250.00;3113270;28;19921;-70
2022/01/25 06:16:48;;;;;;;;;;;;;;;16.22;58.33;100246.50;3112063;28;20389;-71
2022/01/25 06:18:20;;;;;;;;;;;;;;;16.22;58.36;100251.84;3099708;28;20493;-70
2022/01/25 06:19:51;;;;;;;;;;;;;;;16.24;58.20;100245.34;3096825;28;19980;-70
2022/01/25 06:21:23;;;;;;;;;;;;;;;16.24;58.28;100247.16;3105148;28;19932;-71
2022/01/25 06:22:54;;;;;;;;;;;;;;;16.26;58.33;100251.38;3098898;28;19961;-70
2022/01/25 06:24:26;;;;;;;;;;;;;;;16.24;58.23;100244.50;3114294;28;19932;-70
2022/01/25 06:25:57;;;;;;;;;;;;;;;16.25;58.18;100241.69;3112550;28;19928;-70
2022/01/25 06:27:29;;;;;;;;;;;;;;;16.23;58.31;100249.00;3107702;28;19925;-70
2022/01/25 06:29:01;;;;;;;;;;;;;;;16.23;58.29;100251.69;3101322;28;19929;-70
2022/01/25 06:30:32;;;;;;;;;;;;;;;16.23;58.20;100259.72;3105008;28;19935;-71
2022/01/25 06:32:06;;;;;;;;;;;;;;;16.23;58.24;100254.38;3111990;28;19971;-71
2022/01/25 06:33:38;;;;;;;;;;;;;;;16.23;58.27;100251.69;3112749;28;20509;-70
2022/01/25 06:35:10;;;;;;;;;;;;;;;16.23;58.24;100254.38;3100964;28;20057;-70
2022/01/25 06:36:41;;;;;;;;;;;;;;;16.24;58.15;100256.06;3107057;28;19921;-70
2022/01/25 06:38:13;;;;;;;;;;;;;;;16.24;58.28;100258.75;3111533;28;19929;-71
2022/01/25 06:39:44;;;;;;;;;;;;;;;16.23;58.19;100254.38;3104491;28;20723;-71
2022/01/25 06:41:17;;;;;;;;;;;;;;;16.22;58.21;100258.03;3102434;28;19928;-70
2022/01/25 06:42:49;;;;;;;;;;;;;;;16.23;58.17;100259.72;3112038;28;19921;-71
2022/01/25 06:44:20;;;;;;;;;;;;;;;16.24;58.03;100268.59;3110402;28;19921;-70
2022/01/25 06:45:56;;;;;;;;;;;;;;;16.25;58.07;100268.44;3109354;28;19925;-71
2022/01/25 06:47:29;;;;;;;;;;;;;;;16.25;58.20;100268.44;3109884;28;19924;-71
2022/01/25 06:49:01;;;;;;;;;;;;;;;16.25;57.85;100265.78;3108289;28;19963;-70
2022/01/25 06:50:32;;;;;;;;;;;;;;;16.25;58.16;100260.41;3103448;28;19975;-70
2022/01/25 06:52:04;;;;;;;;;;;;;;;16.26;58.25;100269.28;3112323;28;19925;-70
2022/01/25 06:53:36;;;;;;;;;;;;;;;16.28;58.13;100264.63;3111026;28;19994;-70
2022/01/25 06:55:08;;;;;;;;;;;;;;;16.31;58.08;100272.38;3100493;28;19953;-70
2022/01/25 06:56:40;;;;;;;;;;;;;;;16.31;58.19;100269.69;3107326;28;20374;-70
2022/01/25 06:58:12;;;;;;;;;;;;;;;16.30;58.17;100266.19;3108865;28;19921;-70
2022/01/25 06:59:43;;;;;;;;;;;;;;;16.30;58.24;100263.50;3111243;28;19925;-70
2022/01/25 07:01:17;;;;;;;;;;;;;;;16.31;58.25;100270.53;3098594;28;20907;-70
2022/01/25 07:02:50;;;;;;;;;;;;;;;16.34;58.22;100268.56;3101537;28;19921;-70
2022/01/25 07:04:22;;;;;;;;;;;;;;;16.34;58.21;100265.88;3113844;28;19948;-70
2022/01/25 07:05:53;;;;;;;;;;;;;;;16.33;58.09;100265.03;3110326;28;19925;-70
2022/01/25 07:07:25;;;;;;;;;;;;;;;16.33;58.10;100275.75;3097431;28;19957;-69
2022/01/25 07:08:56;;;;;;;;;;;;;;;16.34;58.17;100268.56;3099368;28;20421;-70
2022/01/25 07:10:28;;;;;;;;;;;;;;;16.34;58.20;100265.88;3100160;28;20052;-70
2022/01/25 07:12:00;;;;;;;;;;;;;;;16.36;58.13;100269.25;3104158;28;19925;-70
2022/01/25 07:13:31;;;;;;;;;;;;;;;16.34;58.17;100266.72;3099640;28;19933;-69
2022/01/25 07:15:03;;;;;;;;;;;;;;;16.34;58.09;100266.72;3097471;28;19921;-70
2022/01/25 07:16:35;;;;;;;;;;;;;;;16.34;58.18;100260.53;3112007;28;19928;-70
2022/01/25 07:18:08;;;;;;;;;;;;;;;16.34;58.10;100268.56;3095457;28;21113;-71
2022/01/25 07:19:39;;;;;;;;;;;;;;;16.33;58.11;100262.38;3112883;28;19928;-70
2022/01/25 07:21:11;;;;;;;;;;;;;;;16.33;58.24;100272.25;3107980;28;19923;-69
2022/01/25 07:22:42;;;;;;;;;;;;;;;16.34;58.21;100271.22;3102070;28;19964;-70
2022/01/25 07:24:14;;;;;;;;;;;;;;;16.35;58.15;100278.25;3107002;28;20132;-70
2022/01/25 07:25:45;;;;;;;;;;;;;;;16.34;58.14;100272.06;3112341;28;19924;-70
2022/01/25 07:27:17;;;;;;;;;;;;;;;16.35;58.06;100278.25;3093039;28;19932;-70
2022/01/25 07:28:49;;;;;;;;;;;;;;;16.35;58.06;100279.09;3096661;28;19983;-69
2022/01/25 07:30:20;;;;;;;;;;;;;;;16.35;58.05;100275.59;3099376;28;20178;-70
2022/01/25 07:31:53;;;;;;;;;;;;;;;16.35;58.09;100278.25;3100469;28;19937;-70
2022/01/25 07:33:26;;;;;;;;;;;;;;;16.33;58.12;100269.56;3080818;28;19925;-70
2022/01/25 07:34:57;;;;;;;;;;;;;;;16.34;58.02;100268.56;3088513;28;20323;-70
2022/01/25 07:36:29;;;;;;;;;;;;;;;16.34;58.19;100273.91;3096280;28;20787;-70
2022/01/25 07:38:00;;;;;;;;;;;;;;;16.33;58.05;100270.41;3107353;28;19944;-70
2022/01/25 07:39:32;;;;;;;;;;;;;;;16.34;58.07;100276.59;3111787;28;19921;-71
2022/01/25 07:41:03;;;;;;;;;;;;;;;16.31;58.14;100272.38;3097792;28;19933;-70
2022/01/25 07:42:37;;;;;;;;;;;;;;;16.30;58.23;100273.38;3105550;28;19921;-70
2022/01/25 07:44:08;;;;;;;;;;;;;;;16.31;58.25;100283.91;3108314;28;20012;-70
2022/01/25 07:45:42;;;;;;;;;;;;;;;16.30;58.20;100282.25;3111204;28;19932;-70
2022/01/25 07:47:13;;;;;;;;;;;;;;;16.29;58.22;100277.03;3096605;28;20386;-70
2022/01/25 07:48:46;;;;;;;;;;;;;;;16.28;58.14;100276.19;3099566;28;19924;-71
2022/01/25 07:50:18;;;;;;;;;;;;;;;16.27;58.29;100277.19;3110885;28;19983;-71
2022/01/25 07:51:49;;;;;;;;;;;;;;;16.26;58.23;100280.84;3107447;28;19932;-70
2022/01/25 07:53:21;;;;;;;;;;;;;;;16.25;58.33;100279.16;3101322;28;19920;-70
2022/01/25 07:54:52;;;;;;;;;;;;;;;16.25;58.34;100281.00;3112976;28;20359;-70
2022/01/25 07:56:24;;;;;;;;;;;;;;;16.23;58.36;100275.78;3111213;28;19921;-70
2022/01/25 07:57:55;;;;;;;;;;;;;;;16.23;58.24;100275.78;3112269;28;19921;-70
2022/01/25 07:59:27;;;;;;;;;;;;;;;16.20;58.24;100269.88;3109754;28;19924;-70
2022/01/25 08:00:59;;;;;;;;;;;;;;;16.20;58.23;100278.75;3108630;28;20129;-70
2022/01/25 08:02:31;;;;;;;;;;;;;;;16.18;58.38;100278.06;3111808;28;19932;-70
2022/01/25 08:04:04;;;;;;;;;;;;;;;16.18;58.32;100278.06;3112060;28;19925;-70
2022/01/25 08:05:35;;;;;;;;;;;;;;;16.15;58.39;100277.50;3112227;28;20113;-70
2022/01/25 08:07:07;;;;;;;;;;;;;;;16.14;58.48;100274.00;3109199;28;19935;-70
2022/01/25 08:08:38;;;;;;;;;;;;;;;16.13;58.50;100275.00;3111837;28;19925;-70
2022/01/25 08:10:10;;;;;;;;;;;;;;;16.13;58.39;100277.69;3108886;28;19972;-71
2022/01/25 08:11:43;;;;;;;;;;;;;;;16.10;58.44;100283.31;3112154;28;19936;-70
2022/01/25 08:13:15;;;;;;;;;;;;;;;16.09;58.53;100279.78;3108718;28;20306;-70
2022/01/25 08:14:48;;;;;;;;;;;;;;;16.07;58.51;100276.44;3108222;28;20047;-70
2022/01/25 08:16:20;;;;;;;;;;;;;;;16.07;58.54;100275.56;3108578;28;19921;-70
2022/01/25 08:17:51;;;;;;;;;;;;;;;16.07;58.48;100278.25;3111816;28;19924;-70
2022/01/25 08:19:24;;;;;;;;;;;;;;;16.04;58.54;100273.19;3111116;28;19921;-70
2022/01/25 08:20:56;;;;;;;;;;;;;;;16.03;58.49;100279.53;3109931;28;19921;-70
2022/01/25 08:22:27;;;;;;;;;;;;;;;16.02;58.57;100280.53;3108426;28;20492;-70
2022/01/25 08:23:59;;;;;;;;;;;;;;;16.00;58.64;100277.16;3106870;28;19921;-70
2022/01/25 08:25:31;;;;;;;;;;;;;;;15.99;58.51;100283.47;3112758;28;19921;-70
2022/01/25 08:27:02;;;;;;;;;;;;;;;15.98;58.64;100282.66;3107746;28;20298;-71
2022/01/25 08:28:34;;;;;;;;;;;;;;;15.98;58.54;100281.81;3101623;28;21079;-70
2022/01/25 08:30:06;;;;;;;;;;;;;;;15.95;58.71;100287.47;3106798;28;19937;-70
2022/01/25 08:31:39;;;;;;;;;;;;;;;15.94;58.75;100280.44;3098742;28;19925;-70
2022/01/25 08:33:10;;;;;;;;;;;;;;;15.92;58.78;100279.72;3108154;28;20287;-70
2022/01/25 08:34:43;;;;;;;;;;;;;;;15.91;58.66;100281.56;3113375;28;19925;-70
2022/01/25 08:36:15;;;;;;;;;;;;;;;15.90;58.84;100279.84;3112793;28;19928;-70
2022/01/25 08:37:47;;;;;;;;;;;;;;;15.90;58.70;100281.69;3111380;28;19936;-70
2022/01/25 08:39:18;;;;;;;;;;;;;;;15.87;58.76;100274.81;3110033;28;20618;-70
2022/01/25 08:40:50;;;;;;;;;;;;;;;15.86;58.74;100282.00;3110211;28;19937;-70
2022/01/25 08:42:21;;;;;;;;;;;;;;;15.83;58.87;100279.59;3109097;28;19921;-71
2022/01/25 08:43:53;;;;;;;;;;;;;;;15.82;58.81;100274.38;3108329;28;19925;-70
2022/01/25 08:45:25;;;;;;;;;;;;;;;15.81;58.84;100275.38;3112752;28;19933;-70
2022/01/25 08:46:57;;;;;;;;;;;;;;;15.80;58.94;100279.06;3111301;28;19963;-70
2022/01/25 08:48:28;;;;;;;;;;;;;;;15.79;58.91;100272.84;3110026;28;19929;-70
2022/01/25 08:50:01;;;;;;;;;;;;;;;15.78;58.97;100276.53;3110531;28;19925;-70
2022/01/25 08:51:32;;;;;;;;;;;;;;;15.76;58.92;100269.63;3105584;28;19929;-70
2022/01/25 08:53:04;;;;;;;;;;;;;;;15.74;58.92;100275.13;3095259;28;19928;-70
2022/01/25 08:54:36;;;;;;;;;;;;;;;15.74;58.92;100271.59;3092656;28;19937;-70
2022/01/25 08:56:08;;;;;;;;;;;;;;;15.71;59.03;100272.75;3087566;28;19936;-70
2022/01/25 08:57:39;;;;;;;;;;;;;;;15.71;59.04;100274.56;3089594;28;19925;-70
2022/01/25 08:59:11;;;;;;;;;;;;;;;15.69;58.95;100271.22;3089607;28;20410;-70
2022/01/25 09:00:43;;;;;;;;;;;;;;;15.68;59.03;100272.16;3092061;28;19930;-70
2022/01/25 09:02:15;;;;;;;;;;;;;;;15.68;58.99;100275.69;3093495;28;19928;-70
2022/01/25 09:03:46;;;;;;;;;;;;;;;15.66;58.99;100272.31;3097619;28;20365;-71
2022/01/25 09:05:20;;;;;;;;;;;;;;;15.64;59.09;100275.13;3094908;28;20005;-70